Time;durP1;ratioP1;P1;durP2;ratioP2;P2;SDS_P1;SDS_P2;PMS_P1;PMS_P2;Temp;Humidity;BMP_temperature;BMP_pressure;BME280_temperature;BME280_humidity;BME280_pressure;Samples;Min_cycle;Max_cycle;Signal;HPM_P1;HPM_P2
2022/12/18 00:01:05;;;;;;;41.38;24.08;;;;;;;;;;5064067;28;20200;-79
2022/12/18 00:03:32;;;;;;;43.58;23.75;;;;;;;;;;5064224;28;20225;-80
2022/12/18 00:05:58;;;;;;;50.45;21.85;;;;;;;;;;5064467;28;20198;-79
2022/12/18 00:08:25;;;;;;;47.75;22.23;;;;;;;;;;5061288;28;20232;-79
2022/12/18 00:10:54;;;;;;;51.42;24.38;;;;;;;;;;5065975;28;20208;-79
2022/12/18 00:13:22;;;;;;;48.85;26.38;;;;;;;;;;5063641;28;20240;-79
2022/12/18 00:15:48;;;;;;;45.58;23.60;;;;;;;;;;5060653;28;20588;-79
2022/12/18 00:18:14;;;;;;;47.00;22.85;;;;;;;;;;5062544;28;20232;-79
2022/12/18 00:20:41;;;;;;;45.33;23.98;;;;;;;;;;5063799;28;20212;-79
2022/12/18 00:23:07;;;;;;;50.55;23.90;;;;;;;;;;5062129;28;20232;-79
2022/12/18 00:25:34;;;;;;;56.10;26.42;;;;;;;;;;5066782;28;20650;-79
2022/12/18 00:28:00;;;;;;;49.80;24.83;;;;;;;;;;5063118;28;20229;-80
2022/12/18 00:30:28;;;;;;;67.35;25.35;;;;;;;;;;5066821;28;20211;-79
2022/12/18 00:32:54;;;;;;;42.63;22.30;;;;;;;;;;5065014;28;20248;-78
2022/12/18 00:35:21;;;;;;;48.80;22.92;;;;;;;;;;5065216;28;20701;-79
2022/12/18 00:37:47;;;;;;;41.55;23.38;;;;;;;;;;5062726;28;20244;-80
2022/12/18 00:40:14;;;;;;;45.97;24.52;;;;;;;;;;5069044;28;20207;-79
2022/12/18 00:42:57;;;;;;;45.10;24.38;;;;;;;;;;5068437;28;20324;-80
2022/12/18 00:45:30;;;;;;;54.53;26.02;;;;;;;;;;5055775;28;20193;-79
2022/12/18 00:47:57;;;;;;;38.78;22.25;;;;;;;;;;5070296;28;20601;-79
2022/12/18 00:50:24;;;;;;;39.28;21.90;;;;;;;;;;5068985;28;20216;-79
2022/12/18 00:52:51;;;;;;;56.70;25.05;;;;;;;;;;5068865;28;20240;-80
2022/12/18 00:55:18;;;;;;;41.63;23.17;;;;;;;;;;5066890;28;20193;-80
2022/12/18 00:57:44;;;;;;;52.33;23.58;;;;;;;;;;5070254;28;20230;-79
2022/12/18 01:00:12;;;;;;;46.30;24.27;;;;;;;;;;5056269;28;20203;-79
2022/12/18 01:02:48;;;;;;;48.63;24.70;;;;;;;;;;5060535;28;20231;-79
2022/12/18 01:05:15;;;;;;;48.85;23.48;;;;;;;;;;5061420;28;20220;-80
2022/12/18 01:07:41;;;;;;;44.92;24.95;;;;;;;;;;5055584;28;20232;-79
2022/12/18 01:10:08;;;;;;;48.78;25.08;;;;;;;;;;5064052;28;20198;-80
2022/12/18 01:12:34;;;;;;;51.40;26.30;;;;;;;;;;5057996;28;20223;-79
2022/12/18 01:15:00;;;;;;;47.60;24.45;;;;;;;;;;5062005;28;20212;-79
2022/12/18 01:17:27;;;;;;;44.85;22.88;;;;;;;;;;5061253;28;20243;-79
2022/12/18 01:19:55;;;;;;;56.67;23.83;;;;;;;;;;5064680;28;20227;-79
2022/12/18 01:22:21;;;;;;;46.42;24.10;;;;;;;;;;5061975;28;20270;-79
2022/12/18 01:24:48;;;;;;;41.75;23.27;;;;;;;;;;5057153;28;20682;-79
2022/12/18 01:27:14;;;;;;;55.10;25.80;;;;;;;;;;5057589;28;20259;-79
2022/12/18 01:29:40;;;;;;;43.78;24.30;;;;;;;;;;5064737;28;20215;-79
2022/12/18 01:32:07;;;;;;;45.70;21.45;;;;;;;;;;5066768;28;20223;-79
2022/12/18 01:34:34;;;;;;;40.63;21.80;;;;;;;;;;5066505;28;20553;-81
2022/12/18 01:37:02;;;;;;;41.53;22.95;;;;;;;;;;5062302;28;20295;-79
2022/12/18 01:39:29;;;;;;;51.30;25.17;;;;;;;;;;5062705;28;20200;-79
2022/12/18 01:42:04;;;;;;;52.85;23.90;;;;;;;;;;5047328;28;20627;-79
2022/12/18 01:44:49;;;;;;;50.00;25.02;;;;;;;;;;5059285;28;20209;-79
2022/12/18 01:47:16;;;;;;;46.38;23.20;;;;;;;;;;5069085;28;20220;-79
2022/12/18 01:49:43;;;;;;;50.67;23.90;;;;;;;;;;5066122;28;20212;-81
2022/12/18 01:52:10;;;;;;;43.70;23.02;;;;;;;;;;5068052;28;20224;-78
2022/12/18 01:54:37;;;;;;;41.00;21.40;;;;;;;;;;5064272;28;20208;-79
2022/12/18 01:57:09;;;;;;;47.95;22.08;;;;;;;;;;5060922;28;20223;-80
2022/12/18 01:59:36;;;;;;;38.00;20.38;;;;;;;;;;5062721;28;20196;-80
2022/12/18 02:02:03;;;;;;;53.45;22.45;;;;;;;;;;5066733;28;20246;-80
2022/12/18 02:04:30;;;;;;;42.70;22.48;;;;;;;;;;5066259;28;20205;-80
2022/12/18 02:07:02;;;;;;;44.22;21.45;;;;;;;;;;5062766;28;20240;-79
2022/12/18 02:09:32;;;;;;;35.00;21.55;;;;;;;;;;5059172;28;20203;-80
2022/12/18 02:12:05;;;;;;;34.42;19.40;;;;;;;;;;5059453;28;20216;-79
2022/12/18 02:14:37;;;;;;;37.85;21.98;;;;;;;;;;5058146;28;20232;-79
2022/12/18 02:17:05;;;;;;;47.67;23.95;;;;;;;;;;5058762;28;20228;-79
2022/12/18 02:19:40;;;;;;;42.42;22.23;;;;;;;;;;5065497;28;20207;-79
2022/12/18 02:22:15;;;;;;;34.53;19.98;;;;;;;;;;5060586;28;20232;-79
2022/12/18 02:24:49;;;;;;;39.13;21.02;;;;;;;;;;5045609;28;20212;-79
2022/12/18 02:27:19;;;;;;;41.88;22.85;;;;;;;;;;5057514;28;20219;-79
2022/12/18 02:29:49;;;;;;;45.08;22.23;;;;;;;;;;5058779;28;20214;-79
2022/12/18 02:32:17;;;;;;;43.25;21.35;;;;;;;;;;5065707;28;20234;-79
2022/12/18 02:34:44;;;;;;;33.50;20.25;;;;;;;;;;5063015;28;20208;-79
2022/12/18 02:37:13;;;;;;;42.33;22.58;;;;;;;;;;5059271;28;20304;-79
2022/12/18 02:39:42;;;;;;;34.20;19.80;;;;;;;;;;5060970;28;20203;-79
2022/12/18 02:42:08;;;;;;;45.58;23.80;;;;;;;;;;5059991;28;20308;-79
2022/12/18 02:44:42;;;;;;;57.38;25.35;;;;;;;;;;5061845;28;20201;-78
2022/12/18 02:47:12;;;;;;;41.95;21.95;;;;;;;;;;5058773;28;20224;-79
2022/12/18 02:49:45;;;;;;;44.20;23.35;;;;;;;;;;5061018;28;20219;-79
2022/12/18 02:52:15;;;;;;;41.38;18.73;;;;;;;;;;5060333;28;20232;-80
2022/12/18 02:54:51;;;;;;;46.80;23.95;;;;;;;;;;5062422;28;20203;-79
2022/12/18 02:57:21;;;;;;;33.47;20.17;;;;;;;;;;5065325;28;20257;-79
2022/12/18 02:59:54;;;;;;;38.67;19.40;;;;;;;;;;5062936;28;20204;-79
2022/12/18 03:02:22;;;;;;;40.45;21.20;;;;;;;;;;5063671;28;20281;-79
2022/12/18 03:04:50;;;;;;;34.53;20.65;;;;;;;;;;5063490;28;20573;-79
2022/12/18 03:07:21;;;;;;;36.45;20.70;;;;;;;;;;5069168;28;20225;-79
2022/12/18 03:09:50;;;;;;;39.35;21.27;;;;;;;;;;5075094;28;20223;-79
2022/12/18 03:12:23;;;;;;;37.22;21.10;;;;;;;;;;5069988;28;20235;-81
2022/12/18 03:14:55;;;;;;;40.30;19.88;;;;;;;;;;5064686;28;20594;-80
2022/12/18 03:17:24;;;;;;;31.73;20.40;;;;;;;;;;5059029;28;20236;-80
2022/12/18 03:19:53;;;;;;;36.58;21.63;;;;;;;;;;5059596;28;20227;-79
2022/12/18 03:22:22;;;;;;;36.45;20.55;;;;;;;;;;5063247;28;20221;-79
2022/12/18 03:24:49;;;;;;;36.72;21.55;;;;;;;;;;5070633;28;20204;-79
2022/12/18 03:27:16;;;;;;;38.13;20.63;;;;;;;;;;5066030;28;20231;-79
2022/12/18 03:29:44;;;;;;;33.50;21.08;;;;;;;;;;5059488;28;20225;-79
2022/12/18 03:32:15;;;;;;;38.75;20.23;;;;;;;;;;5061605;28;20232;-79
2022/12/18 03:34:43;;;;;;;36.88;19.63;;;;;;;;;;5064066;28;20200;-81
2022/12/18 03:37:09;;;;;;;41.08;20.52;;;;;;;;;;5059112;28;20229;-80
2022/12/18 03:39:36;;;;;;;32.67;19.48;;;;;;;;;;5063753;28;20203;-79
2022/12/18 03:42:06;;;;;;;35.63;20.42;;;;;;;;;;5065827;28;20601;-79
2022/12/18 03:44:36;;;;;;;42.88;22.50;;;;;;;;;;5068251;28;20845;-79
2022/12/18 03:47:07;;;;;;;33.55;18.40;;;;;;;;;;5066699;28;20243;-79
2022/12/18 03:49:38;;;;;;;31.30;19.58;;;;;;;;;;5068724;28;20643;-80
2022/12/18 03:52:08;;;;;;;32.60;20.30;;;;;;;;;;5065285;28;20235;-80
2022/12/18 03:54:36;;;;;;;41.45;20.30;;;;;;;;;;5067076;28;20205;-80
2022/12/18 03:57:06;;;;;;;32.25;18.63;;;;;;;;;;5066210;28;20236;-79
2022/12/18 03:59:33;;;;;;;35.25;19.38;;;;;;;;;;5067909;28;20219;-79
2022/12/18 04:02:01;;;;;;;30.45;20.05;;;;;;;;;;5062399;28;20232;-79
2022/12/18 04:04:28;;;;;;;33.75;17.85;;;;;;;;;;5063632;28;20208;-80
2022/12/18 04:06:57;;;;;;;34.83;17.77;;;;;;;;;;5064608;28;20209;-79
2022/12/18 04:09:23;;;;;;;26.70;17.73;;;;;;;;;;5065146;28;20232;-81
2022/12/18 04:11:50;;;;;;;30.58;17.38;;;;;;;;;;5070519;28;20204;-81
2022/12/18 04:14:17;;;;;;;27.73;18.10;;;;;;;;;;5072545;28;20213;-81
2022/12/18 04:16:43;;;;;;;27.98;15.25;;;;;;;;;;5070448;28;20205;-79
2022/12/18 04:19:09;;;;;;;26.70;16.02;;;;;;;;;;5072544;28;20220;-79
2022/12/18 04:21:36;;;;;;;25.13;15.43;;;;;;;;;;5069950;28;20733;-79
2022/12/18 04:24:04;;;;;;;28.02;17.23;;;;;;;;;;5068382;28;20710;-79
2022/12/18 04:26:31;;;;;;;41.20;16.70;;;;;;;;;;5054266;28;20215;-79
2022/12/18 04:28:58;;;;;;;23.75;15.05;;;;;;;;;;5058230;28;20604;-79
2022/12/18 04:31:24;;;;;;;30.67;17.70;;;;;;;;;;5063082;28;20211;-80
2022/12/18 04:33:51;;;;;;;28.73;17.30;;;;;;;;;;5060299;28;20229;-79
2022/12/18 04:36:18;;;;;;;32.60;16.88;;;;;;;;;;5064045;28;20200;-79
2022/12/18 04:38:44;;;;;;;29.75;17.23;;;;;;;;;;5059546;28;20712;-79
2022/12/18 04:41:13;;;;;;;25.85;15.35;;;;;;;;;;5059164;28;20208;-80
2022/12/18 04:43:40;;;;;;;29.15;16.15;;;;;;;;;;5064316;28;20262;-79
2022/12/18 04:46:07;;;;;;;23.80;13.35;;;;;;;;;;5062425;28;20208;-79
2022/12/18 04:48:33;;;;;;;28.95;16.10;;;;;;;;;;5065731;28;20223;-79
2022/12/18 04:50:59;;;;;;;31.63;15.38;;;;;;;;;;5062659;28;20213;-79
2022/12/18 04:53:26;;;;;;;29.15;14.93;;;;;;;;;;5067697;28;20248;-79
2022/12/18 04:56:02;;;;;;;25.05;14.75;;;;;;;;;;5063678;28;20200;-81
2022/12/18 04:58:30;;;;;;;26.75;15.70;;;;;;;;;;5065897;28;20244;-79
2022/12/18 05:00:56;;;;;;;20.73;13.55;;;;;;;;;;5062105;28;20211;-80
2022/12/18 05:03:23;;;;;;;23.90;14.40;;;;;;;;;;5061663;28;20223;-80
2022/12/18 05:05:50;;;;;;;23.65;15.10;;;;;;;;;;5064233;28;20262;-79
2022/12/18 05:08:18;;;;;;;20.88;13.15;;;;;;;;;;5060594;28;20610;-79
2022/12/18 05:10:44;;;;;;;23.05;14.80;;;;;;;;;;5064820;28;20208;-79
2022/12/18 05:13:10;;;;;;;25.92;15.45;;;;;;;;;;5063470;28;20220;-79
2022/12/18 05:15:39;;;;;;;26.27;13.63;;;;;;;;;;5068562;28;20211;-79
2022/12/18 05:18:05;;;;;;;21.67;15.48;;;;;;;;;;5062728;28;20231;-79
2022/12/18 05:20:32;;;;;;;25.90;14.95;;;;;;;;;;5070673;28;20287;-81
2022/12/18 05:22:58;;;;;;;27.58;14.55;;;;;;;;;;5066606;28;20236;-78
2022/12/18 05:25:25;;;;;;;28.88;13.80;;;;;;;;;;5066170;28;20211;-79
2022/12/18 05:27:51;;;;;;;25.73;15.15;;;;;;;;;;5066332;28;20232;-79
2022/12/18 05:30:17;;;;;;;26.70;14.65;;;;;;;;;;5069811;28;20228;-79
2022/12/18 05:32:45;;;;;;;25.35;13.30;;;;;;;;;;5071123;28;20248;-78
2022/12/18 05:35:12;;;;;;;21.63;13.20;;;;;;;;;;5059047;28;20205;-79
2022/12/18 05:37:38;;;;;;;22.13;14.00;;;;;;;;;;5062010;28;20614;-79
2022/12/18 05:40:05;;;;;;;23.65;13.90;;;;;;;;;;5060062;28;20193;-79
2022/12/18 05:42:32;;;;;;;22.67;14.48;;;;;;;;;;5060876;28;20229;-79
2022/12/18 05:44:58;;;;;;;24.40;13.65;;;;;;;;;;5065740;28;20206;-79
2022/12/18 05:47:25;;;;;;;23.40;13.52;;;;;;;;;;5060569;28;20232;-79
2022/12/18 05:49:52;;;;;;;23.65;14.55;;;;;;;;;;5067731;28;20235;-79
2022/12/18 05:52:19;;;;;;;32.08;16.40;;;;;;;;;;5061324;28;20232;-80
2022/12/18 05:54:45;;;;;;;66.15;28.77;;;;;;;;;;5064181;28;20206;-80
2022/12/18 05:57:12;;;;;;;40.75;18.80;;;;;;;;;;5065336;28;20232;-79
2022/12/18 05:59:38;;;;;;;106.15;42.88;;;;;;;;;;5064108;28;20193;-80
2022/12/18 06:02:05;;;;;;;182.15;74.03;;;;;;;;;;5065528;28;20226;-81
2022/12/18 06:04:31;;;;;;;139.30;56.47;;;;;;;;;;5069068;28;20204;-79
2022/12/18 06:06:59;;;;;;;52.40;27.67;;;;;;;;;;5065673;28;20686;-79
2022/12/18 06:09:25;;;;;;;23.05;14.73;;;;;;;;;;5067897;28;20220;-79
2022/12/18 06:11:53;;;;;;;170.15;59.13;;;;;;;;;;5064766;28;20223;-79
2022/12/18 06:14:19;;;;;;;116.60;45.08;;;;;;;;;;5064914;28;20200;-79
2022/12/18 06:16:46;;;;;;;36.90;19.58;;;;;;;;;;5062609;28;20200;-79
2022/12/18 06:19:16;;;;;;;46.67;21.50;;;;;;;;;;5062276;28;20228;-79
2022/12/18 06:21:42;;;;;;;100.28;36.33;;;;;;;;;;5065902;28;20219;-80
2022/12/18 06:24:10;;;;;;;74.55;31.40;;;;;;;;;;5069745;28;20205;-79
2022/12/18 06:26:38;;;;;;;79.50;36.35;;;;;;;;;;5062707;28;20670;-79
2022/12/18 06:29:04;;;;;;;39.30;19.45;;;;;;;;;;5066490;28;20233;-79
2022/12/18 06:31:31;;;;;;;49.58;21.27;;;;;;;;;;5063836;28;20207;-79
2022/12/18 06:33:57;;;;;;;32.97;16.33;;;;;;;;;;5068846;28;20231;-79
2022/12/18 06:36:23;;;;;;;29.60;17.33;;;;;;;;;;5064903;28;20220;-80
2022/12/18 06:38:51;;;;;;;32.10;14.80;;;;;;;;;;5065879;28;20315;-81
2022/12/18 06:41:19;;;;;;;24.70;13.98;;;;;;;;;;5073831;28;20201;-79
2022/12/18 06:43:47;;;;;;;45.85;22.25;;;;;;;;;;5059928;28;20250;-79
2022/12/18 06:46:13;;;;;;;72.70;31.40;;;;;;;;;;5064881;28;20201;-79
2022/12/18 06:48:40;;;;;;;128.98;61.88;;;;;;;;;;5066431;28;20242;-79
2022/12/18 06:51:06;;;;;;;51.80;26.77;;;;;;;;;;5060526;28;20272;-79
2022/12/18 06:53:33;;;;;;;79.10;37.10;;;;;;;;;;5064902;28;20231;-79
2022/12/18 06:56:03;;;;;;;59.80;33.00;;;;;;;;;;5048728;28;20208;-79
2022/12/18 06:58:32;;;;;;;167.15;89.10;;;;;;;;;;5061185;28;20228;-79
2022/12/18 07:01:02;;;;;;;29.70;15.77;;;;;;;;;;5062615;28;20663;-79
2022/12/18 07:03:28;;;;;;;23.85;15.30;;;;;;;;;;5065817;28;20899;-79
2022/12/18 07:05:55;;;;;;;28.88;19.77;;;;;;;;;;5063276;28;20210;-80
2022/12/18 07:08:22;;;;;;;24.75;14.00;;;;;;;;;;5070939;28;20232;-79
2022/12/18 07:10:49;;;;;;;17.17;12.60;;;;;;;;;;5065798;28;20223;-81
2022/12/18 07:13:16;;;;;;;25.25;19.92;;;;;;;;;;5060140;28;20229;-79
2022/12/18 07:15:44;;;;;;;37.78;32.10;;;;;;;;;;5068171;28;20215;-80
2022/12/18 07:18:11;;;;;;;19.45;12.68;;;;;;;;;;5066075;28;20583;-80
2022/12/18 07:20:37;;;;;;;38.72;34.63;;;;;;;;;;5065039;28;20685;-79
2022/12/18 07:23:05;;;;;;;25.95;18.52;;;;;;;;;;5069738;28;20225;-80
2022/12/18 07:25:31;;;;;;;31.20;20.38;;;;;;;;;;5061589;28;20220;-79
2022/12/18 07:27:58;;;;;;;25.35;13.93;;;;;;;;;;5065053;28;20239;-80
2022/12/18 07:30:24;;;;;;;18.17;11.95;;;;;;;;;;5066901;28;20220;-79
2022/12/18 07:32:52;;;;;;;27.05;14.00;;;;;;;;;;5065237;28;20232;-80
2022/12/18 07:35:19;;;;;;;20.23;10.57;;;;;;;;;;5071465;28;20316;-80
2022/12/18 07:37:45;;;;;;;15.98;10.02;;;;;;;;;;5061544;28;20233;-79
2022/12/18 07:40:13;;;;;;;19.50;9.68;;;;;;;;;;5068656;28;20196;-79
2022/12/18 07:42:40;;;;;;;15.13;10.48;;;;;;;;;;5071204;28;20639;-79
2022/12/18 07:45:07;;;;;;;18.63;9.55;;;;;;;;;;5074631;28;20220;-80
2022/12/18 07:47:35;;;;;;;15.38;10.23;;;;;;;;;;5067102;28;20231;-81
2022/12/18 07:50:02;;;;;;;16.23;10.50;;;;;;;;;;5069341;28;20220;-79
2022/12/18 07:52:29;;;;;;;16.15;11.02;;;;;;;;;;5067378;28;20232;-80
2022/12/18 07:54:55;;;;;;;23.77;11.02;;;;;;;;;;5058549;28;20211;-79
2022/12/18 07:57:22;;;;;;;18.48;11.70;;;;;;;;;;5063746;28;20307;-80
2022/12/18 07:59:48;;;;;;;23.00;11.63;;;;;;;;;;5066618;28;20287;-80
2022/12/18 08:02:15;;;;;;;16.23;11.35;;;;;;;;;;5065191;28;20861;-80
2022/12/18 08:04:41;;;;;;;19.70;14.10;;;;;;;;;;5071338;28;20230;-79
2022/12/18 08:07:09;;;;;;;18.60;12.88;;;;;;;;;;5065231;28;20225;-79
2022/12/18 08:09:35;;;;;;;16.73;10.55;;;;;;;;;;5063543;28;20231;-79
2022/12/18 08:12:02;;;;;;;26.75;14.93;;;;;;;;;;5069302;28;20234;-81
2022/12/18 08:14:28;;;;;;;30.70;19.05;;;;;;;;;;5061229;28;20434;-79
2022/12/18 08:16:54;;;;;;;23.58;15.95;;;;;;;;;;5068367;28;20214;-80
2022/12/18 08:19:21;;;;;;;14.55;12.02;;;;;;;;;;5067865;28;20235;-79
2022/12/18 08:21:47;;;;;;;20.65;14.15;;;;;;;;;;5070007;28;20209;-80
2022/12/18 08:24:14;;;;;;;54.17;34.35;;;;;;;;;;5067775;28;20212;-80
2022/12/18 08:26:42;;;;;;;42.00;22.58;;;;;;;;;;5063053;28;20217;-79
2022/12/18 08:29:09;;;;;;;48.70;27.15;;;;;;;;;;5067354;28;20701;-79
2022/12/18 08:31:36;;;;;;;40.58;19.02;;;;;;;;;;5066257;28;20646;-79
2022/12/18 08:34:02;;;;;;;30.85;19.42;;;;;;;;;;5064913;28;20310;-79
2022/12/18 08:36:28;;;;;;;25.40;13.80;;;;;;;;;;5066569;28;20204;-79
2022/12/18 08:38:55;;;;;;;86.28;45.10;;;;;;;;;;5068267;28;20729;-79
2022/12/18 08:41:22;;;;;;;20.17;13.88;;;;;;;;;;5075254;28;20208;-79
2022/12/18 08:46:35;;;;;;;22.35;13.57;;;;;;;;;;5070152;28;20203;-80
2022/12/18 08:49:02;;;;;;;19.90;14.10;;;;;;;;;;5067356;28;20221;-80
2022/12/18 08:51:28;;;;;;;18.08;12.35;;;;;;;;;;5069342;28;20232;-79
2022/12/18 08:53:55;;;;;;;21.13;12.45;;;;;;;;;;5071280;28;20222;-81
2022/12/18 08:56:23;;;;;;;38.05;22.27;;;;;;;;;;5075058;28;20204;-80
2022/12/18 08:58:52;;;;;;;41.42;27.88;;;;;;;;;;5071106;28;20225;-82
2022/12/18 09:01:20;;;;;;;24.58;18.58;;;;;;;;;;5063067;28;20208;-79
2022/12/18 09:03:48;;;;;;;27.95;16.90;;;;;;;;;;5060292;28;20233;-79
2022/12/18 09:06:14;;;;;;;23.00;14.60;;;;;;;;;;5069512;28;20204;-81
2022/12/18 09:08:40;;;;;;;20.52;12.98;;;;;;;;;;5070672;28;20769;-81
2022/12/18 09:11:12;;;;;;;24.73;14.70;;;;;;;;;;5063823;28;20226;-79
2022/12/18 09:13:40;;;;;;;21.15;15.57;;;;;;;;;;5066111;28;20596;-79
2022/12/18 09:16:07;;;;;;;22.60;13.85;;;;;;;;;;5072628;28;20218;-80
2022/12/18 09:18:33;;;;;;;21.75;13.35;;;;;;;;;;5068751;28;20239;-80
2022/12/18 09:21:00;;;;;;;24.92;15.00;;;;;;;;;;5065432;28;20208;-80
2022/12/18 09:23:26;;;;;;;20.52;13.57;;;;;;;;;;5070189;28;20224;-80
2022/12/18 09:25:52;;;;;;;27.75;18.90;;;;;;;;;;5067997;28;20694;-81
2022/12/18 09:28:19;;;;;;;30.33;17.88;;;;;;;;;;5074491;28;20228;-81
2022/12/18 09:30:48;;;;;;;22.08;14.18;;;;;;;;;;5068799;28;20225;-79
2022/12/18 09:33:15;;;;;;;32.05;21.70;;;;;;;;;;5071156;28;20217;-79
2022/12/18 09:35:42;;;;;;;28.48;16.80;;;;;;;;;;5068989;28;20209;-80
2022/12/18 09:38:09;;;;;;;22.10;12.85;;;;;;;;;;5074082;28;20236;-79
2022/12/18 09:40:36;;;;;;;42.53;28.50;;;;;;;;;;5069443;28;20200;-80
2022/12/18 09:43:04;;;;;;;30.52;19.88;;;;;;;;;;5073375;28;20605;-79
2022/12/18 09:45:31;;;;;;;36.53;22.65;;;;;;;;;;5073170;28;20211;-81
2022/12/18 09:47:59;;;;;;;39.22;29.13;;;;;;;;;;5074468;28;20236;-80
2022/12/18 09:50:38;;;;;;;25.70;16.27;;;;;;;;;;5073300;28;20250;-80
2022/12/18 09:53:07;;;;;;;25.05;15.25;;;;;;;;;;5072402;28;20221;-79
2022/12/18 09:55:35;;;;;;;24.58;15.68;;;;;;;;;;5075987;28;20197;-80
2022/12/18 09:58:08;;;;;;;28.98;16.17;;;;;;;;;;5073939;28;20237;-79
2022/12/18 10:00:34;;;;;;;29.48;15.77;;;;;;;;;;5076565;28;20188;-79
2022/12/18 10:03:04;;;;;;;34.20;19.33;;;;;;;;;;5077210;28;20232;-81
2022/12/18 10:05:35;;;;;;;31.05;17.48;;;;;;;;;;5079142;28;20197;-80
2022/12/18 10:08:06;;;;;;;33.92;17.35;;;;;;;;;;5075410;28;20239;-81
2022/12/18 10:10:37;;;;;;;35.13;17.58;;;;;;;;;;5069184;28;20214;-79
2022/12/18 10:13:08;;;;;;;35.72;19.20;;;;;;;;;;5071698;28;20709;-79
2022/12/18 10:15:39;;;;;;;32.25;18.67;;;;;;;;;;5066386;28;20201;-80
2022/12/18 10:18:15;;;;;;;33.17;18.75;;;;;;;;;;5069723;28;20707;-80
2022/12/18 10:20:44;;;;;;;32.35;17.92;;;;;;;;;;5066455;28;20716;-80
2022/12/18 10:23:14;;;;;;;31.52;16.95;;;;;;;;;;5067112;28;20654;-79
2022/12/18 10:25:44;;;;;;;31.80;16.65;;;;;;;;;;5064154;28;20201;-80
2022/12/18 10:28:13;;;;;;;25.15;14.75;;;;;;;;;;5069062;28;20237;-80
2022/12/18 10:30:39;;;;;;;29.02;19.02;;;;;;;;;;5067814;28;20645;-80
2022/12/18 10:33:06;;;;;;;36.20;18.88;;;;;;;;;;5068477;28;20239;-79
2022/12/18 10:35:35;;;;;;;31.88;18.27;;;;;;;;;;5073877;28;20225;-80
2022/12/18 10:38:02;;;;;;;27.05;17.88;;;;;;;;;;5062985;28;20238;-79
2022/12/18 10:40:29;;;;;;;40.78;21.70;;;;;;;;;;5063916;28;20198;-80
2022/12/18 10:43:05;;;;;;;39.35;20.48;;;;;;;;;;5062213;28;20724;-79
2022/12/18 10:45:31;;;;;;;33.35;19.05;;;;;;;;;;5066908;28;20209;-79
2022/12/18 10:47:58;;;;;;;39.78;18.88;;;;;;;;;;5067505;28;20229;-79
2022/12/18 10:50:26;;;;;;;30.70;16.77;;;;;;;;;;5069027;28;20705;-79
2022/12/18 10:52:56;;;;;;;33.33;16.17;;;;;;;;;;5068265;28;20225;-80
2022/12/18 10:55:23;;;;;;;28.05;15.98;;;;;;;;;;5065480;28;20208;-79
2022/12/18 10:57:49;;;;;;;30.60;15.30;;;;;;;;;;5068190;28;20709;-80
2022/12/18 11:00:24;;;;;;;28.80;16.92;;;;;;;;;;5061367;28;20193;-80
2022/12/18 11:02:50;;;;;;;26.00;15.35;;;;;;;;;;5069259;28;20224;-80
2022/12/18 11:05:27;;;;;;;57.45;31.58;;;;;;;;;;5069151;28;20259;-79
2022/12/18 11:07:54;;;;;;;33.47;18.27;;;;;;;;;;5065809;28;20236;-80
2022/12/18 11:10:23;;;;;;;33.33;16.98;;;;;;;;;;5076206;28;20246;-79
2022/12/18 11:12:49;;;;;;;26.88;17.40;;;;;;;;;;5070880;28;20228;-80
2022/12/18 11:15:17;;;;;;;24.48;14.38;;;;;;;;;;5070564;28;20201;-79
2022/12/18 11:17:43;;;;;;;22.30;16.30;;;;;;;;;;5073135;28;20243;-80
2022/12/18 11:20:21;;;;;;;25.77;17.83;;;;;;;;;;5069615;28;20199;-80
2022/12/18 11:22:55;;;;;;;31.88;17.02;;;;;;;;;;5067260;28;20289;-79
2022/12/18 11:25:23;;;;;;;25.95;15.40;;;;;;;;;;5062357;28;20202;-80
2022/12/18 11:27:50;;;;;;;23.38;13.98;;;;;;;;;;5069949;28;20245;-80
2022/12/18 11:30:22;;;;;;;27.83;16.33;;;;;;;;;;5067098;28;20300;-80
2022/12/18 11:32:49;;;;;;;20.55;15.25;;;;;;;;;;5069778;28;20226;-80
2022/12/18 11:35:18;;;;;;;24.60;14.95;;;;;;;;;;5070691;28;20214;-80
2022/12/18 11:37:47;;;;;;;22.25;14.60;;;;;;;;;;5071221;28;20230;-81
2022/12/18 11:40:15;;;;;;;24.35;17.25;;;;;;;;;;5072097;28;20213;-80
2022/12/18 11:42:46;;;;;;;27.08;17.60;;;;;;;;;;5073400;28;20228;-80
2022/12/18 11:45:21;;;;;;;31.48;23.20;;;;;;;;;;5071912;28;20211;-80
2022/12/18 11:47:53;;;;;;;31.80;23.38;;;;;;;;;;5071320;28;20225;-80
2022/12/18 11:50:21;;;;;;;30.98;21.73;;;;;;;;;;5075745;28;20205;-80
2022/12/18 11:52:48;;;;;;;27.33;16.02;;;;;;;;;;5067713;28;20251;-80
2022/12/18 11:55:15;;;;;;;27.70;15.48;;;;;;;;;;5081395;28;20669;-80
2022/12/18 11:57:47;;;;;;;51.28;33.92;;;;;;;;;;5078624;28;20235;-80
2022/12/18 12:00:16;;;;;;;51.47;31.80;;;;;;;;;;5069531;28;20675;-80
2022/12/18 12:02:58;;;;;;;33.10;19.48;;;;;;;;;;5071561;28;20238;-81
2022/12/18 12:05:37;;;;;;;20.90;13.02;;;;;;;;;;5074540;28;20194;-80
2022/12/18 12:08:08;;;;;;;21.77;15.10;;;;;;;;;;5077688;28;20236;-82
2022/12/18 12:10:40;;;;;;;27.98;16.70;;;;;;;;;;5073012;28;20222;-80
2022/12/18 12:13:17;;;;;;;21.42;16.63;;;;;;;;;;5073584;28;20292;-81
2022/12/18 12:15:49;;;;;;;26.07;20.77;;;;;;;;;;5078297;28;20197;-82
2022/12/18 12:18:22;;;;;;;22.73;15.43;;;;;;;;;;5072004;28;21058;-80
2022/12/18 12:20:52;;;;;;;21.13;16.02;;;;;;;;;;5076159;28;20200;-80
2022/12/18 12:23:23;;;;;;;23.30;13.73;;;;;;;;;;5076145;28;20251;-81
2022/12/18 12:25:52;;;;;;;27.00;15.63;;;;;;;;;;5075183;28;20212;-82
2022/12/18 12:28:36;;;;;;;22.10;15.00;;;;;;;;;;5072270;28;20493;-81
2022/12/18 12:31:07;;;;;;;21.20;13.47;;;;;;;;;;5074473;28;20490;-80
2022/12/18 12:33:38;;;;;;;20.60;14.13;;;;;;;;;;5077471;28;20479;-81
2022/12/18 12:36:09;;;;;;;18.80;11.63;;;;;;;;;;5074931;28;20452;-81
2022/12/18 12:38:37;;;;;;;22.73;12.60;;;;;;;;;;5074236;28;21160;-81
2022/12/18 12:41:05;;;;;;;20.67;12.70;;;;;;;;;;5076560;28;20448;-81
2022/12/18 12:43:37;;;;;;;13.63;11.25;;;;;;;;;;5072473;28;20474;-80
2022/12/18 12:46:05;;;;;;;18.27;12.70;;;;;;;;;;5076445;28;20197;-81
2022/12/18 12:48:42;;;;;;;20.57;12.57;;;;;;;;;;5070177;28;20578;-80
2022/12/18 12:51:11;;;;;;;19.60;12.63;;;;;;;;;;5070846;28;20485;-81
2022/12/18 12:53:38;;;;;;;18.97;11.50;;;;;;;;;;5072262;28;20481;-80
2022/12/18 12:56:06;;;;;;;20.10;13.00;;;;;;;;;;5074099;28;20450;-81
2022/12/18 12:58:34;;;;;;;18.15;11.60;;;;;;;;;;5073107;28;20263;-81
2022/12/18 13:01:09;;;;;;;18.80;11.90;;;;;;;;;;5074227;28;20232;-80
2022/12/18 13:03:41;;;;;;;17.97;11.00;;;;;;;;;;5070814;28;20472;-81
2022/12/18 13:06:10;;;;;;;18.33;11.40;;;;;;;;;;5075682;28;20462;-81
2022/12/18 13:08:53;;;;;;;15.55;11.20;;;;;;;;;;5065812;28;20232;-81
2022/12/18 13:14:21;;;;;;;17.80;12.30;;;;;;;;;;5072449;28;20481;-81
2022/12/18 13:16:48;;;;;;;20.67;11.73;;;;;;;;;;5072714;28;20208;-81
2022/12/18 13:19:22;;;;;;;17.60;11.60;;;;;;;;;;5076604;28;20608;-81
2022/12/18 13:21:53;;;;;;;17.63;12.93;;;;;;;;;;5078207;28;20467;-80
2022/12/18 13:24:23;;;;;;;49.07;32.60;;;;;;;;;;5074866;28;20459;-81
2022/12/18 13:26:50;;;;;;;17.23;10.40;;;;;;;;;;5076753;28;20450;-81
2022/12/18 13:29:40;;;;;;;16.03;11.30;;;;;;;;;;5078130;28;20460;-83
2022/12/18 13:32:21;;;;;;;14.43;12.90;;;;;;;;;;5071134;28;20858;-81
2022/12/18 13:34:48;;;;;;;23.40;17.83;;;;;;;;;;5068458;28;20682;-83
2022/12/18 13:37:33;;;;;;;20.40;11.13;;;;;;;;;;5070738;28;20726;-81
2022/12/18 13:40:00;;;;;;;67.90;52.83;;;;;;;;;;5072030;28;20225;-81
2022/12/18 13:45:38;;;;;;;16.93;13.77;;;;;;;;;;5072555;28;20315;-81
2022/12/18 13:48:06;;;;;;;14.47;10.00;;;;;;;;;;5075256;28;21007;-81
2022/12/18 13:50:34;;;;;;;17.40;12.02;;;;;;;;;;5072295;28;20481;-81
2022/12/18 13:53:00;;;;;;;16.60;9.63;;;;;;;;;;5074801;28;20228;-81
2022/12/18 13:55:27;;;;;;;17.90;11.70;;;;;;;;;;5078280;28;20219;-81
2022/12/18 13:58:03;;;;;;;15.40;11.87;;;;;;;;;;5067495;28;20538;-81
2022/12/18 14:00:30;;;;;;;19.90;9.80;;;;;;;;;;5052813;28;20457;-81
2022/12/18 14:02:57;;;;;;;18.67;10.38;;;;;;;;;;5073342;28;20468;-81
2022/12/18 14:05:26;;;;;;;13.47;10.50;;;;;;;;;;5075677;28;20579;-81
2022/12/18 14:07:53;;;;;;;16.93;10.70;;;;;;;;;;5069356;28;20468;-80
2022/12/18 14:10:19;;;;;;;17.30;9.90;;;;;;;;;;5071669;28;20447;-81
2022/12/18 14:12:59;;;;;;;14.13;10.60;;;;;;;;;;5074196;28;20480;-81
2022/12/18 14:15:33;;;;;;;12.37;10.17;;;;;;;;;;5071002;28;20473;-81
2022/12/18 14:18:00;;;;;;;14.85;10.38;;;;;;;;;;5072828;28;20471;-81
2022/12/18 14:20:30;;;;;;;21.67;13.03;;;;;;;;;;5074664;28;20210;-80
2022/12/18 14:22:57;;;;;;;17.60;11.53;;;;;;;;;;5072954;28;20463;-81
2022/12/18 14:25:25;;;;;;;13.68;10.27;;;;;;;;;;5074556;28;20455;-82
2022/12/18 14:27:52;;;;;;;13.53;11.07;;;;;;;;;;5070986;28;20685;-81
2022/12/18 14:30:26;;;;;;;17.40;11.43;;;;;;;;;;5078643;28;20454;-80
2022/12/18 14:33:00;;;;;;;16.30;10.40;;;;;;;;;;5075094;28;20483;-81